PHXPHOENIX SKY HARBOR INTL
METARs for airports near PHX, sorted by distance:
N 0 nm 1134' KPHX 221751Z 10007KT 10SM CLR 32/02 A2983
NE 12 nm 1510' KSDL 221753Z VRB05KT 10SM CLR 32/03 A2986
SE 14 nm 1243' KCHD 221847Z 15006G13KT 10SM CLR 34/00 A2982
E 14 nm 1394' KFFZ 221754Z 11005KT 10SM CLR 32/04 A2985
W 15 nm 1071' KGEU 221747Z VRB05KT 10SM CLR 31/00 A2981
N 15 nm 1478' KDVT 221753Z 14009G18KT 10SM CLR 32/03 A2985
W 18 nm 969' KGYR 221847Z 060076KT 10SM FEW250 33/03 A2982
E 19 nm 1384' KIWA 221747Z 14013G20KT 10SM CLR 32/03 A2986
W 19 nm 1083' KLUF 221755Z 07004KT 10SM CLR 31/M01 A2982
SE 31 nm 1464' KCGZ 221756Z 12007KT 10SM CLR 31/02 A2986
W 33 nm 1033' KBXK 221835Z 11008KT 10SM CLR 32/01 A2983
SW 48 nm 883' KGXF 221755Z 33004KT 10SM CLR 32/01 A2983
NE 59 nm 5156' KPAN 221835Z 19007KT 150V210 10SM CLR 24/M01 A3009
SE 65 nm 1893' KMZJ 221835Z VRB06KT 10SM CLR 33/M03 A2987
SE 73 nm 2031' KAVQ 221835Z 20007KT 10SM 33/M03 A2985
N 76 nm 5045' KPRC 221753Z 17009G17KT 10SM CLR 25/M06 A3005
N 85 nm 4830' KSEZ 221835Z 14003KT 10SM CLR 27/00 A3005
SE 88 nm 2418' KRYN 221745Z 34004KT 10SM CLR 31/M03 A2989
SE 95 nm 2704' KDMA 221755Z 20008KT 10SM CLR 30/M05 A2990
SE 95 nm 2643' KTUS 221753Z 16007KT 10SM CLR 31/M01 A2993
TAFs for airports near PHX, sorted by distance:
N 0 nm 1134' KPHX TAF KPHX 221720Z 2218/2324 14006KT P6SM SKC
  FM222000 18007KT P6SM SKC
  FM222200 26009KT P6SM FEW250
  FM230900 10007KT P6SM SKC
  FM231800 18010KT P6SM SKC
  FM232100 24011KT P6SM SKC
NE 12 nm 1510' KSDL KSDL 221720Z 2218/2318 15005KT P6SM SKC
  FM222200 24006KT P6SM FEW250
  FM230400 VRB03KT P6SM SKC
N 15 nm 1478' KDVT TAF KDVT 221720Z 2218/2318 16007KT P6SM SKC
  FM222100 24008KT P6SM FEW250
  FM230700 VRB04KT P6SM SKC
E 19 nm 1384' KIWA TAF KIWA 221720Z 2218/2318 15007KT P6SM SKC
  FM222100 27008KT P6SM FEW250
  FM230700 12008KT P6SM SKC
W 19 nm 1083' KLUF TAF TAF KLUF 221200Z 2212/2318 VRB06KT 9999 SKC QNH2971INS
  BECMG 2222/2223 23010KT 9999 SKC QNH2967INS WND VRB06KT AFT 2305 TX37/2223Z TN18/2213Z
N 76 nm 5045' KPRC KPRC 221740Z 2218/2318 17009KT P6SM SKC
  FM221830 21010G18KT P6SM FEW120
  FM230200 18009KT P6SM SKC
  FM231630 21014G22KT P6SM FEW100
N 85 nm 4830' KSEZ TAF KSEZ 221740Z 2218/2318 VRB04KT P6SM SKC
  FM221930 19009G18KT P6SM FEW120
  FM230300 04006KT P6SM SKC
  FM231700 17010G17KT P6SM FEW100
SE 95 nm 2704' KDMA TAF KDMA 221100Z 2211/2317 14009KT 9999 SKC 510609 QNH2989INS
  BECMG 2213/2214 15012KT 9999 SKC 510009 510907 QNH2986INS
  BECMG 2219/2220 24010G15KT 9999 SKC 510009 510909 QNH2973INS
  BECMG 2301/2302 26009KT 9999 SKC 510209 510909 QNH2975INS
  BECMG 2305/2306 15006KT 9999 SKC 510009 510909 QNH2983INS TX34/2222Z TN17/2211Z
SE 95 nm 2643' KTUS KTUS 221739Z 2218/2318 14008KT P6SM SKC
  FM222000 220009G17KT P6SM SKC
  FM230100 24005KT P6SM SKC
  FM230700 14007KT P6SM SKC

Shortcut to this page: http://wxbay.com.

Data may contain errors.